sensor_id;sensor_type;location;lat;lon;timestamp;pressure;altitude;pressure_sealevel;temperature;humidity
56876;BME280;42622;49.972;8.452;2022-11-10T00:01:09;61550.72;;;-145.27;100.00
56876;BME280;42622;49.972;8.452;2022-11-10T00:03:37;61550.72;;;-145.27;100.00
56876;BME280;42622;49.972;8.452;2022-11-10T00:06:07;61550.72;;;-145.27;100.00
56876;BME280;42622;49.972;8.452;2022-11-10T00:08:34;61550.72;;;-145.27;100.00
56876;BME280;42622;49.972;8.452;2022-11-10T00:11:06;61550.72;;;-145.27;100.00
56876;BME280;42622;49.972;8.452;2022-11-10T00:13:40;61550.72;;;-145.27;100.00
56876;BME280;42622;49.972;8.452;2022-11-10T00:16:25;61550.72;;;-145.27;100.00
56876;BME280;42622;49.972;8.452;2022-11-10T00:19:13;61550.72;;;-145.27;100.00
56876;BME280;42622;49.972;8.452;2022-11-10T00:21:42;61550.72;;;-145.27;100.00
56876;BME280;42622;49.972;8.452;2022-11-10T00:24:08;61550.72;;;-145.27;100.00
56876;BME280;42622;49.972;8.452;2022-11-10T00:26:33;61550.72;;;-145.27;100.00
56876;BME280;42622;49.972;8.452;2022-11-10T00:28:59;61550.72;;;-145.27;100.00
56876;BME280;42622;49.972;8.452;2022-11-10T00:31:25;61550.72;;;-145.27;100.00
56876;BME280;42622;49.972;8.452;2022-11-10T00:33:52;61550.72;;;-145.27;100.00
56876;BME280;42622;49.972;8.452;2022-11-10T00:36:18;61550.72;;;-145.27;100.00
56876;BME280;42622;49.972;8.452;2022-11-10T00:38:44;61550.72;;;-145.27;100.00
56876;BME280;42622;49.972;8.452;2022-11-10T00:41:10;61550.72;;;-145.27;100.00
56876;BME280;42622;49.972;8.452;2022-11-10T00:43:36;61550.72;;;-145.27;100.00
56876;BME280;42622;49.972;8.452;2022-11-10T00:46:01;61550.72;;;-145.27;100.00
56876;BME280;42622;49.972;8.452;2022-11-10T00:48:27;61550.72;;;-145.27;100.00
56876;BME280;42622;49.972;8.452;2022-11-10T00:50:56;61550.72;;;-145.27;100.00
56876;BME280;42622;49.972;8.452;2022-11-10T00:53:22;61550.72;;;-145.27;100.00
56876;BME280;42622;49.972;8.452;2022-11-10T00:55:48;61550.72;;;-145.27;100.00
56876;BME280;42622;49.972;8.452;2022-11-10T00:58:13;61550.72;;;-145.27;100.00
56876;BME280;42622;49.972;8.452;2022-11-10T01:00:40;61550.72;;;-145.27;100.00
56876;BME280;42622;49.972;8.452;2022-11-10T01:03:06;61550.72;;;-145.27;100.00
56876;BME280;42622;49.972;8.452;2022-11-10T01:05:37;61550.72;;;-145.27;100.00
56876;BME280;42622;49.972;8.452;2022-11-10T01:08:03;61550.72;;;-145.27;100.00
56876;BME280;42622;49.972;8.452;2022-11-10T01:10:29;61550.72;;;-145.27;100.00
56876;BME280;42622;49.972;8.452;2022-11-10T01:12:54;61550.72;;;-145.27;100.00
56876;BME280;42622;49.972;8.452;2022-11-10T01:15:21;61550.72;;;-145.27;100.00
56876;BME280;42622;49.972;8.452;2022-11-10T01:17:46;61550.72;;;-145.27;100.00
56876;BME280;42622;49.972;8.452;2022-11-10T01:20:12;61550.72;;;-145.27;100.00
56876;BME280;42622;49.972;8.452;2022-11-10T01:22:38;61550.72;;;-145.27;100.00
56876;BME280;42622;49.972;8.452;2022-11-10T01:25:06;61550.72;;;-145.27;100.00
56876;BME280;42622;49.972;8.452;2022-11-10T01:27:31;61550.72;;;-145.27;100.00
56876;BME280;42622;49.972;8.452;2022-11-10T01:29:57;61550.72;;;-145.27;100.00
56876;BME280;42622;49.972;8.452;2022-11-10T01:32:23;61550.72;;;-145.27;100.00
56876;BME280;42622;49.972;8.452;2022-11-10T01:34:48;61550.72;;;-145.27;100.00
56876;BME280;42622;49.972;8.452;2022-11-10T01:37:14;61550.72;;;-145.27;100.00
56876;BME280;42622;49.972;8.452;2022-11-10T01:39:40;61550.72;;;-145.27;100.00
56876;BME280;42622;49.972;8.452;2022-11-10T01:42:06;61550.72;;;-145.27;100.00
56876;BME280;42622;49.972;8.452;2022-11-10T01:44:34;61550.72;;;-145.27;100.00
56876;BME280;42622;49.972;8.452;2022-11-10T01:47:00;61550.72;;;-145.27;100.00
56876;BME280;42622;49.972;8.452;2022-11-10T01:49:27;61550.72;;;-145.27;100.00
56876;BME280;42622;49.972;8.452;2022-11-10T01:52:07;61550.72;;;-145.27;100.00
56876;BME280;42622;49.972;8.452;2022-11-10T01:54:41;61550.72;;;-145.27;100.00
56876;BME280;42622;49.972;8.452;2022-11-10T01:57:11;61550.72;;;-145.27;100.00
56876;BME280;42622;49.972;8.452;2022-11-10T01:59:45;61550.72;;;-145.27;100.00
56876;BME280;42622;49.972;8.452;2022-11-10T02:03:38;61550.72;;;-145.27;100.00
56876;BME280;42622;49.972;8.452;2022-11-10T02:05:44;61550.72;;;-145.27;100.00
56876;BME280;42622;49.972;8.452;2022-11-10T02:08:14;61550.72;;;-145.27;100.00
56876;BME280;42622;49.972;8.452;2022-11-10T02:10:42;61550.72;;;-145.27;100.00
56876;BME280;42622;49.972;8.452;2022-11-10T02:13:09;61550.72;;;-145.27;100.00
56876;BME280;42622;49.972;8.452;2022-11-10T02:15:36;61550.72;;;-145.27;100.00
56876;BME280;42622;49.972;8.452;2022-11-10T02:18:02;61550.72;;;-145.27;100.00
56876;BME280;42622;49.972;8.452;2022-11-10T02:20:28;61550.72;;;-145.27;100.00
56876;BME280;42622;49.972;8.452;2022-11-10T02:22:53;61550.72;;;-145.27;100.00
56876;BME280;42622;49.972;8.452;2022-11-10T02:25:22;61550.72;;;-145.27;100.00
56876;BME280;42622;49.972;8.452;2022-11-10T02:27:49;61550.72;;;-145.27;100.00
56876;BME280;42622;49.972;8.452;2022-11-10T02:30:15;61550.72;;;-145.27;100.00
56876;BME280;42622;49.972;8.452;2022-11-10T02:32:41;61550.72;;;-145.27;100.00
56876;BME280;42622;49.972;8.452;2022-11-10T02:35:07;61550.72;;;-145.27;100.00
56876;BME280;42622;49.972;8.452;2022-11-10T02:37:34;61550.72;;;-145.27;100.00
56876;BME280;42622;49.972;8.452;2022-11-10T02:39:59;61550.72;;;-145.27;100.00
56876;BME280;42622;49.972;8.452;2022-11-10T02:42:25;61550.72;;;-145.27;100.00
56876;BME280;42622;49.972;8.452;2022-11-10T02:44:51;61550.72;;;-145.27;100.00
56876;BME280;42622;49.972;8.452;2022-11-10T02:47:17;61550.72;;;-145.27;100.00
56876;BME280;42622;49.972;8.452;2022-11-10T02:49:45;61550.72;;;-145.27;100.00
56876;BME280;42622;49.972;8.452;2022-11-10T02:52:11;61550.72;;;-145.27;100.00
56876;BME280;42622;49.972;8.452;2022-11-10T02:54:36;61550.72;;;-145.27;100.00
56876;BME280;42622;49.972;8.452;2022-11-10T02:57:02;61550.72;;;-145.27;100.00
56876;BME280;42622;49.972;8.452;2022-11-10T02:59:28;61550.72;;;-145.27;100.00
56876;BME280;42622;49.972;8.452;2022-11-10T03:01:53;61550.72;;;-145.27;100.00
56876;BME280;42622;49.972;8.452;2022-11-10T03:04:19;61550.72;;;-145.27;100.00
56876;BME280;42622;49.972;8.452;2022-11-10T03:06:45;61550.72;;;-145.27;100.00
56876;BME280;42622;49.972;8.452;2022-11-10T03:09:16;61550.72;;;-145.27;100.00
56876;BME280;42622;49.972;8.452;2022-11-10T03:11:45;61550.72;;;-145.27;100.00
56876;BME280;42622;49.972;8.452;2022-11-10T03:14:16;61550.72;;;-145.27;100.00
56876;BME280;42622;49.972;8.452;2022-11-10T03:16:42;61550.72;;;-145.27;100.00
56876;BME280;42622;49.972;8.452;2022-11-10T03:19:08;61550.72;;;-145.27;100.00
56876;BME280;42622;49.972;8.452;2022-11-10T03:21:33;61550.72;;;-145.27;100.00
56876;BME280;42622;49.972;8.452;2022-11-10T03:23:59;61550.72;;;-145.27;100.00
56876;BME280;42622;49.972;8.452;2022-11-10T03:26:25;61550.72;;;-145.27;100.00
56876;BME280;42622;49.972;8.452;2022-11-10T03:28:50;61550.72;;;-145.27;100.00
56876;BME280;42622;49.972;8.452;2022-11-10T03:31:16;61550.72;;;-145.27;100.00
56876;BME280;42622;49.972;8.452;2022-11-10T03:33:45;61550.72;;;-145.27;100.00
56876;BME280;42622;49.972;8.452;2022-11-10T03:36:11;61550.72;;;-145.27;100.00
56876;BME280;42622;49.972;8.452;2022-11-10T03:38:39;61550.72;;;-145.27;100.00
56876;BME280;42622;49.972;8.452;2022-11-10T03:41:07;61550.72;;;-145.27;100.00
56876;BME280;42622;49.972;8.452;2022-11-10T03:43:35;61550.72;;;-145.27;100.00
56876;BME280;42622;49.972;8.452;2022-11-10T03:46:01;61550.72;;;-145.27;100.00
56876;BME280;42622;49.972;8.452;2022-11-10T03:48:27;61550.72;;;-145.27;100.00
56876;BME280;42622;49.972;8.452;2022-11-10T03:50:55;61550.72;;;-145.27;100.00
56876;BME280;42622;49.972;8.452;2022-11-10T03:55:43;101238.03;;;4.70;100.00
56876;BME280;42622;49.972;8.452;2022-11-10T03:58:12;101235.72;;;4.59;100.00
56876;BME280;42622;49.972;8.452;2022-11-10T04:00:38;101242.88;;;4.54;100.00
56876;BME280;42622;49.972;8.452;2022-11-10T04:03:04;101247.28;;;4.52;100.00
56876;BME280;42622;49.972;8.452;2022-11-10T04:05:30;101247.34;;;4.50;100.00
56876;BME280;42622;49.972;8.452;2022-11-10T04:08:16;101245.56;;;4.52;100.00
56876;BME280;42622;49.972;8.452;2022-11-10T04:11:01;101250.75;;;4.54;100.00
56876;BME280;42622;49.972;8.452;2022-11-10T04:13:27;101250.88;;;4.49;100.00
56876;BME280;42622;49.972;8.452;2022-11-10T04:16:12;101260.44;;;4.50;100.00
56876;BME280;42622;49.972;8.452;2022-11-10T04:18:38;101255.13;;;4.53;100.00
56876;BME280;42622;49.972;8.452;2022-11-10T04:21:04;101242.78;;;4.57;100.00
56876;BME280;42622;49.972;8.452;2022-11-10T04:23:31;101255.50;;;4.69;100.00
56876;BME280;42622;49.972;8.452;2022-11-10T04:26:07;101266.41;;;4.84;100.00
56876;BME280;42622;49.972;8.452;2022-11-10T04:28:54;101270.47;;;4.94;100.00
56876;BME280;42622;49.972;8.452;2022-11-10T04:31:28;101277.88;;;5.09;100.00
56876;BME280;42622;49.972;8.452;2022-11-10T04:33:55;101283.47;;;5.25;100.00
56876;BME280;42622;49.972;8.452;2022-11-10T04:36:25;101276.28;;;5.32;100.00
56876;BME280;42622;49.972;8.452;2022-11-10T04:38:53;101273.47;;;5.38;100.00
56876;BME280;42622;49.972;8.452;2022-11-10T04:41:21;101276.03;;;5.39;100.00
56876;BME280;42622;49.972;8.452;2022-11-10T04:43:51;101278.72;;;5.38;100.00
56876;BME280;42622;49.972;8.452;2022-11-10T04:46:28;101273.41;;;5.39;100.00
56876;BME280;42622;49.972;8.452;2022-11-10T04:48:57;101266.28;;;5.43;100.00
56876;BME280;42622;49.972;8.452;2022-11-10T04:51:28;101275.66;;;5.50;100.00
56876;BME280;42622;49.972;8.452;2022-11-10T04:53:55;101287.78;;;5.54;100.00
56876;BME280;42622;49.972;8.452;2022-11-10T04:56:25;101282.59;;;5.53;100.00
56876;BME280;42622;49.972;8.452;2022-11-10T04:58:53;101285.16;;;5.54;100.00
56876;BME280;42622;49.972;8.452;2022-11-10T05:01:25;101283.34;;;5.56;100.00
56876;BME280;42622;49.972;8.452;2022-11-10T05:03:53;101286.88;;;5.55;100.00
56876;BME280;42622;49.972;8.452;2022-11-10T05:06:19;101295.72;;;5.51;100.00
56876;BME280;42622;49.972;8.452;2022-11-10T05:08:45;101309.75;;;5.50;100.00
56876;BME280;42622;49.972;8.452;2022-11-10T05:11:13;101318.53;;;5.49;100.00
56876;BME280;42622;49.972;8.452;2022-11-10T05:13:40;101326.31;;;5.52;100.00
56876;BME280;42622;49.972;8.452;2022-11-10T05:16:13;101329.78;;;5.53;100.00
56876;BME280;42622;49.972;8.452;2022-11-10T05:18:40;101333.38;;;5.50;100.00
56876;BME280;42622;49.972;8.452;2022-11-10T05:21:06;101340.53;;;5.45;100.00
56876;BME280;42622;49.972;8.452;2022-11-10T05:23:33;101350.19;;;5.43;100.00
56876;BME280;42622;49.972;8.452;2022-11-10T05:26:11;101352.22;;;5.35;100.00
56876;BME280;42622;49.972;8.452;2022-11-10T05:28:40;101354.22;;;5.26;100.00
56876;BME280;42622;49.972;8.452;2022-11-10T05:31:07;101349.16;;;5.20;100.00
56876;BME280;42622;49.972;8.452;2022-11-10T05:33:35;101359.78;;;5.16;100.00
56876;BME280;42622;49.972;8.452;2022-11-10T05:36:01;101358.91;;;5.15;100.00
56876;BME280;42622;49.972;8.452;2022-11-10T05:38:28;101351.25;;;5.09;100.00
56876;BME280;42622;49.972;8.452;2022-11-10T05:40:56;101376.41;;;5.15;100.00
56876;BME280;42622;49.972;8.452;2022-11-10T05:43:23;101378.22;;;5.13;100.00
56876;BME280;42622;49.972;8.452;2022-11-10T05:45:50;101384.34;;;5.13;100.00
56876;BME280;42622;49.972;8.452;2022-11-10T05:48:16;101382.72;;;5.09;100.00
56876;BME280;42622;49.972;8.452;2022-11-10T05:50:43;101388.03;;;5.06;100.00
56876;BME280;42622;49.972;8.452;2022-11-10T05:53:10;101394.91;;;5.10;100.00
56876;BME280;42622;49.972;8.452;2022-11-10T05:55:36;101391.97;;;5.19;100.00
56876;BME280;42622;49.972;8.452;2022-11-10T05:58:04;101392.81;;;5.21;100.00
56876;BME280;42622;49.972;8.452;2022-11-10T06:00:31;101386.75;;;5.19;100.00
56876;BME280;42622;49.972;8.452;2022-11-10T06:03:14;101400.66;;;5.23;100.00
56876;BME280;42622;49.972;8.452;2022-11-10T06:05:41;101411.78;;;5.30;100.00
56876;BME280;42622;49.972;8.452;2022-11-10T06:08:08;101410.75;;;5.35;100.00
56876;BME280;42622;49.972;8.452;2022-11-10T06:10:36;101411.44;;;5.42;100.00
56876;BME280;42622;49.972;8.452;2022-11-10T06:13:03;101429.78;;;5.42;100.00
56876;BME280;42622;49.972;8.452;2022-11-10T06:15:30;101435.81;;;5.44;100.00
56876;BME280;42622;49.972;8.452;2022-11-10T06:17:57;101439.34;;;5.43;100.00
56876;BME280;42622;49.972;8.452;2022-11-10T06:20:24;101449.00;;;5.42;100.00
56876;BME280;42622;49.972;8.452;2022-11-10T06:23:09;101450.66;;;5.45;100.00
56876;BME280;42622;49.972;8.452;2022-11-10T06:25:38;101459.53;;;5.41;100.00
56876;BME280;42622;49.972;8.452;2022-11-10T06:28:07;101468.28;;;5.40;100.00
56876;BME280;42622;49.972;8.452;2022-11-10T06:30:36;101474.53;;;5.36;100.00
56876;BME280;42622;49.972;8.452;2022-11-10T06:33:03;101485.84;;;5.38;100.00
56876;BME280;42622;49.972;8.452;2022-11-10T06:35:29;101492.88;;;5.36;100.00
56876;BME280;42622;49.972;8.452;2022-11-10T06:38:06;101490.53;;;5.26;100.00
56876;BME280;42622;49.972;8.452;2022-11-10T06:40:34;101504.69;;;5.19;100.00
56876;BME280;42622;49.972;8.452;2022-11-10T06:43:01;101507.53;;;5.12;100.00
56876;BME280;42622;49.972;8.452;2022-11-10T06:45:27;101514.72;;;5.05;100.00
56876;BME280;42622;49.972;8.452;2022-11-10T06:48:00;101517.44;;;5.02;100.00
56876;BME280;42622;49.972;8.452;2022-11-10T06:50:33;101521.91;;;4.98;100.00
56876;BME280;42622;49.972;8.452;2022-11-10T06:53:00;101525.47;;;4.96;100.00
56876;BME280;42622;49.972;8.452;2022-11-10T06:55:27;101528.16;;;4.93;100.00
56876;BME280;42622;49.972;8.452;2022-11-10T06:57:53;101533.41;;;4.93;100.00
56876;BME280;42622;49.972;8.452;2022-11-10T07:00:20;101531.69;;;4.92;100.00
56876;BME280;42622;49.972;8.452;2022-11-10T07:02:46;101524.63;;;4.94;100.00
56876;BME280;42622;49.972;8.452;2022-11-10T07:05:12;101531.63;;;4.95;100.00
56876;BME280;42622;49.972;8.452;2022-11-10T07:07:40;101526.09;;;5.04;100.00
56876;BME280;42622;49.972;8.452;2022-11-10T07:10:06;101539.59;;;5.21;100.00
56876;BME280;42622;49.972;8.452;2022-11-10T07:12:32;101544.31;;;5.41;100.00
56876;BME280;42622;49.972;8.452;2022-11-10T07:14:58;101565.81;;;5.53;100.00
56876;BME280;42622;49.972;8.452;2022-11-10T07:17:23;101571.69;;;5.62;100.00
56876;BME280;42622;49.972;8.452;2022-11-10T07:19:49;101584.50;;;5.71;100.00
56876;BME280;42622;49.972;8.452;2022-11-10T07:22:15;101586.13;;;5.75;100.00
56876;BME280;42622;49.972;8.452;2022-11-10T07:24:41;101577.28;;;5.80;100.00
56876;BME280;42622;49.972;8.452;2022-11-10T07:27:06;101580.72;;;5.82;100.00
56876;BME280;42622;49.972;8.452;2022-11-10T07:29:32;101583.25;;;5.85;100.00
56876;BME280;42622;49.972;8.452;2022-11-10T07:31:58;101586.59;;;5.90;100.00
56876;BME280;42622;49.972;8.452;2022-11-10T07:34:24;101593.53;;;5.94;100.00
56876;BME280;42622;49.972;8.452;2022-11-10T07:36:52;101600.41;;;5.98;100.00
56876;BME280;42622;49.972;8.452;2022-11-10T07:39:18;101605.44;;;6.04;100.00
56876;BME280;42622;49.972;8.452;2022-11-10T07:41:44;101599.91;;;6.13;100.00
56876;BME280;42622;49.972;8.452;2022-11-10T07:44:10;101605.00;;;6.19;100.00
56876;BME280;42622;49.972;8.452;2022-11-10T07:46:35;101608.19;;;6.29;100.00
56876;BME280;42622;49.972;8.452;2022-11-10T07:49:01;101601.72;;;6.39;100.00
56876;BME280;42622;49.972;8.452;2022-11-10T07:51:27;101619.50;;;6.59;100.00
56876;BME280;42622;49.972;8.452;2022-11-10T07:53:55;101622.75;;;6.94;100.00
56876;BME280;42622;49.972;8.452;2022-11-10T07:56:20;101619.00;;;7.26;100.00
56876;BME280;42622;49.972;8.452;2022-11-10T07:58:55;101630.84;;;7.63;100.00
56876;BME280;42622;49.972;8.452;2022-11-10T08:01:21;101633.31;;;7.91;100.00
56876;BME280;42622;49.972;8.452;2022-11-10T08:03:47;101631.50;;;8.17;100.00
56876;BME280;42622;49.972;8.452;2022-11-10T08:06:12;101637.59;;;8.41;100.00
56876;BME280;42622;49.972;8.452;2022-11-10T08:08:38;101645.53;;;8.63;100.00
56876;BME280;42622;49.972;8.452;2022-11-10T08:11:07;101645.88;;;8.53;100.00
56876;BME280;42622;49.972;8.452;2022-11-10T08:13:33;101639.38;;;8.40;100.00
56876;BME280;42622;49.972;8.452;2022-11-10T08:15:58;101647.84;;;8.25;100.00
56876;BME280;42622;49.972;8.452;2022-11-10T08:18:27;101642.03;;;8.17;100.00
56876;BME280;42622;49.972;8.452;2022-11-10T08:20:53;101653.53;;;8.14;100.00
56876;BME280;42622;49.972;8.452;2022-11-10T08:23:19;101649.28;;;8.10;100.00
56876;BME280;42622;49.972;8.452;2022-11-10T08:25:45;101650.44;;;8.03;100.00
56876;BME280;42622;49.972;8.452;2022-11-10T08:28:17;101647.75;;;8.04;100.00
56876;BME280;42622;49.972;8.452;2022-11-10T08:30:48;101639.00;;;8.04;100.00
56876;BME280;42622;49.972;8.452;2022-11-10T08:33:18;101656.34;;;8.09;100.00
56876;BME280;42622;49.972;8.452;2022-11-10T08:35:49;101653.41;;;8.17;100.00
56876;BME280;42622;49.972;8.452;2022-11-10T08:38:22;101648.63;;;8.27;100.00
56876;BME280;42622;49.972;8.452;2022-11-10T08:40:49;101658.94;;;8.33;100.00
56876;BME280;42622;49.972;8.452;2022-11-10T08:43:17;101658.63;;;8.42;100.00
56876;BME280;42622;49.972;8.452;2022-11-10T08:45:44;101653.78;;;8.53;100.00
56876;BME280;42622;49.972;8.452;2022-11-10T08:48:19;101664.84;;;8.63;100.00
56876;BME280;42622;49.972;8.452;2022-11-10T08:50:48;101667.03;;;8.74;100.00
56876;BME280;42622;49.972;8.452;2022-11-10T08:53:20;101671.88;;;8.84;100.00
56876;BME280;42622;49.972;8.452;2022-11-10T08:55:48;101661.09;;;8.91;100.00
56876;BME280;42622;49.972;8.452;2022-11-10T08:58:19;101676.50;;;9.00;100.00
56876;BME280;42622;49.972;8.452;2022-11-10T09:00:49;101671.00;;;9.06;100.00
56876;BME280;42622;49.972;8.452;2022-11-10T09:03:22;101673.19;;;9.17;100.00
56876;BME280;42622;49.972;8.452;2022-11-10T09:05:50;101686.03;;;9.24;100.00
56876;BME280;42622;49.972;8.452;2022-11-10T09:08:18;101693.63;;;9.32;100.00
56876;BME280;42622;49.972;8.452;2022-11-10T09:10:46;101689.81;;;9.39;100.00
56876;BME280;42622;49.972;8.452;2022-11-10T09:13:17;101685.97;;;9.46;100.00
56876;BME280;42622;49.972;8.452;2022-11-10T09:15:45;101683.00;;;9.54;100.00
56876;BME280;42622;49.972;8.452;2022-11-10T09:18:14;101695.03;;;9.61;100.00
56876;BME280;42622;49.972;8.452;2022-11-10T09:20:40;101697.47;;;9.66;100.00
56876;BME280;42622;49.972;8.452;2022-11-10T09:23:10;101702.41;;;9.73;100.00
56876;BME280;42622;49.972;8.452;2022-11-10T09:25:53;101703.06;;;9.78;100.00
56876;BME280;42622;49.972;8.452;2022-11-10T09:28:21;101719.50;;;9.85;100.00
56876;BME280;42622;49.972;8.452;2022-11-10T09:30:50;101721.88;;;9.91;100.00
56876;BME280;42622;49.972;8.452;2022-11-10T09:33:22;101722.50;;;9.96;100.00
56876;BME280;42622;49.972;8.452;2022-11-10T09:35:48;101731.25;;;9.98;100.00
56876;BME280;42622;49.972;8.452;2022-11-10T09:38:15;101731.09;;;10.01;100.00
56876;BME280;42622;49.972;8.452;2022-11-10T09:41:11;101736.00;;;10.11;100.00
56876;BME280;42622;49.972;8.452;2022-11-10T09:46:43;101738.59;;;10.31;100.00
56876;BME280;42622;49.972;8.452;2022-11-10T09:51:58;101739.34;;;10.53;100.00
56876;BME280;42622;49.972;8.452;2022-11-10T09:54:48;101753.84;;;10.64;100.00
56876;BME280;42622;49.972;8.452;2022-11-10T09:57:24;101756.28;;;10.68;100.00
56876;BME280;42622;49.972;8.452;2022-11-10T09:59:52;101759.63;;;10.72;100.00
56876;BME280;42622;49.972;8.452;2022-11-10T10:07:56;101764.63;;;10.78;100.00
56876;BME280;42622;49.972;8.452;2022-11-10T10:10:50;101769.63;;;10.84;100.00
56876;BME280;42622;49.972;8.452;2022-11-10T10:14:03;101763.75;;;10.96;100.00
56876;BME280;42622;49.972;8.452;2022-11-10T10:20:12;101770.31;;;11.07;100.00
56876;BME280;42622;49.972;8.452;2022-11-10T10:23:22;101772.75;;;11.11;100.00
56876;BME280;42622;49.972;8.452;2022-11-10T10:25:57;101778.31;;;11.24;100.00
56876;BME280;42622;49.972;8.452;2022-11-10T10:28:25;101784.53;;;11.40;100.00
56876;BME280;42622;49.972;8.452;2022-11-10T10:33:45;101776.16;;;11.67;100.00
56876;BME280;42622;49.972;8.452;2022-11-10T10:36:23;101775.06;;;11.71;100.00
56876;BME280;42622;49.972;8.452;2022-11-10T10:39:04;101780.06;;;11.77;100.00
56876;BME280;42622;49.972;8.452;2022-11-10T10:41:37;101773.97;;;11.75;100.00
56876;BME280;42622;49.972;8.452;2022-11-10T10:44:12;101771.41;;;11.73;100.00
56876;BME280;42622;49.972;8.452;2022-11-10T10:46:59;101769.81;;;11.69;100.00
56876;BME280;42622;49.972;8.452;2022-11-10T10:49:30;101768.41;;;11.62;100.00
56876;BME280;42622;49.972;8.452;2022-11-10T10:52:17;101771.47;;;11.55;100.00
56876;BME280;42622;49.972;8.452;2022-11-10T10:54:59;101768.59;;;11.42;100.00
56876;BME280;42622;49.972;8.452;2022-11-10T10:57:30;101768.34;;;11.46;100.00
56876;BME280;42622;49.972;8.452;2022-11-10T11:00:21;101768.97;;;11.69;100.00
56876;BME280;42622;49.972;8.452;2022-11-10T11:03:06;101771.25;;;11.77;100.00
56876;BME280;42622;49.972;8.452;2022-11-10T11:06:30;101770.88;;;11.84;100.00
56876;BME280;42622;49.972;8.452;2022-11-10T11:09:24;101774.38;;;11.85;100.00
56876;BME280;42622;49.972;8.452;2022-11-10T11:12:02;101759.94;;;11.73;100.00
56876;BME280;42622;49.972;8.452;2022-11-10T11:14:31;101775.53;;;11.79;100.00
56876;BME280;42622;49.972;8.452;2022-11-10T11:17:21;101778.13;;;11.98;100.00
56876;BME280;42622;49.972;8.452;2022-11-10T11:19:49;101772.78;;;12.15;100.00
56876;BME280;42622;49.972;8.452;2022-11-10T11:22:44;101774.47;;;12.34;100.00
56876;BME280;42622;49.972;8.452;2022-11-10T11:25:37;101780.06;;;12.61;100.00
56876;BME280;42622;49.972;8.452;2022-11-10T11:28:27;101780.75;;;13.44;100.00
56876;BME280;42622;49.972;8.452;2022-11-10T11:34:55;101786.22;;;15.81;100.00
56876;BME280;42622;49.972;8.452;2022-11-10T11:38:01;101787.94;;;17.08;100.00
56876;BME280;42622;49.972;8.452;2022-11-10T11:42:09;101796.22;;;18.22;94.72
56876;BME280;42622;49.972;8.452;2022-11-10T11:50:50;101792.84;;;15.21;100.00
56876;BME280;42622;49.972;8.452;2022-11-10T11:56:50;101798.97;;;16.15;91.71
56876;BME280;42622;49.972;8.452;2022-11-10T12:09:50;101799.66;;;20.09;74.55
56876;BME280;42622;49.972;8.452;2022-11-10T12:12:50;101796.50;;;18.41;77.55
56876;BME280;42622;49.972;8.452;2022-11-10T12:19:26;101791.69;;;20.89;63.64
56876;BME280;42622;49.972;8.452;2022-11-10T12:22:16;101790.28;;;22.11;59.95
56876;BME280;42622;49.972;8.452;2022-11-10T12:27:55;101790.50;;;21.81;56.48
56876;BME280;42622;49.972;8.452;2022-11-10T12:30:40;101790.13;;;20.46;60.42
56876;BME280;42622;49.972;8.452;2022-11-10T12:36:40;101793.75;;;17.85;65.48
56876;BME280;42622;49.972;8.452;2022-11-10T12:39:42;101805.88;;;17.54;65.79
56876;BME280;42622;49.972;8.452;2022-11-10T12:42:23;101799.28;;;17.23;66.86
56876;BME280;42622;49.972;8.452;2022-11-10T12:45:30;101807.81;;;17.04;67.58
56876;BME280;42622;49.972;8.452;2022-11-10T12:48:03;101810.91;;;17.10;67.89
56876;BME280;42622;49.972;8.452;2022-11-10T12:53:47;101811.06;;;18.14;63.99
56876;BME280;42622;49.972;8.452;2022-11-10T12:56:31;101804.41;;;18.20;62.02
56876;BME280;42622;49.972;8.452;2022-11-10T13:02:01;101809.38;;;18.13;60.33
56876;BME280;42622;49.972;8.452;2022-11-10T13:05:22;101803.41;;;16.79;63.02
56876;BME280;42622;49.972;8.452;2022-11-10T13:08:23;101799.84;;;16.91;64.08
56876;BME280;42622;49.972;8.452;2022-11-10T13:13:46;101806.09;;;17.03;64.50
56876;BME280;42622;49.972;8.452;2022-11-10T13:16:58;101820.03;;;17.19;64.51
56876;BME280;42622;49.972;8.452;2022-11-10T13:30:00;101811.97;;;14.29;70.41
56876;BME280;42622;49.972;8.452;2022-11-10T13:32:29;101813.75;;;14.00;71.03
56876;BME280;42622;49.972;8.452;2022-11-10T13:37:54;101819.00;;;13.55;73.74
56876;BME280;42622;49.972;8.452;2022-11-10T13:45:46;101813.81;;;13.22;75.10
56876;BME280;42622;49.972;8.452;2022-11-10T13:51:25;101820.84;;;13.07;76.85
56876;BME280;42622;49.972;8.452;2022-11-10T13:57:34;101817.22;;;12.92;77.53
56876;BME280;42622;49.972;8.452;2022-11-10T14:00:29;101819.47;;;12.84;78.01
56876;BME280;42622;49.972;8.452;2022-11-10T14:06:48;101815.84;;;12.70;78.58
56876;BME280;42622;49.972;8.452;2022-11-10T14:09:33;101822.34;;;12.64;79.08
56876;BME280;42622;49.972;8.452;2022-11-10T14:12:27;101817.53;;;12.55;79.55
56876;BME280;42622;49.972;8.452;2022-11-10T14:15:15;101821.13;;;12.54;79.92
56876;BME280;42622;49.972;8.452;2022-11-10T14:17:57;101827.63;;;12.48;79.93
56876;BME280;42622;49.972;8.452;2022-11-10T14:20:40;101829.66;;;12.43;80.62
56876;BME280;42622;49.972;8.452;2022-11-10T14:23:29;101836.16;;;12.37;80.82
56876;BME280;42622;49.972;8.452;2022-11-10T14:26:40;101839.13;;;12.31;81.16
56876;BME280;42622;49.972;8.452;2022-11-10T14:31:59;101833.38;;;12.23;81.64
56876;BME280;42622;49.972;8.452;2022-11-10T14:34:43;101840.63;;;12.19;81.53
56876;BME280;42622;49.972;8.452;2022-11-10T14:37:25;101849.44;;;12.20;81.80
56876;BME280;42622;49.972;8.452;2022-11-10T14:39:59;101848.88;;;12.13;82.44
56876;BME280;42622;49.972;8.452;2022-11-10T14:42:33;101838.44;;;12.10;82.46
56876;BME280;42622;49.972;8.452;2022-11-10T14:45:26;101849.88;;;12.11;82.95